Time,TemperatureF,DewpointF,PressureIn,WindDirection,WindDirectionDegrees,WindSpeedMPH,WindSpeedGustMPH,Humidity,HourlyPrecipIn,Conditions,Clouds,dailyrainin,SoftwareType,DateUTC
2013-01-24 00:01:00,32.2,0.3,29.81,East,96,3.1,3.1,25,0.00,,CLR,0.00,VWS V14.01,2013-01-24 05:01:00,
2013-01-24 00:02:00,32.2,0.3,29.81,East,96,3.1,3.1,25,0.00,,CLR,0.00,VWS V14.01,2013-01-24 05:02:00,
2013-01-24 00:07:00,32.4,2.9,29.81,NE,47,2.7,2.7,28,0.00,,CLR,0.00,VWS V14.01,2013-01-24 05:07:00,
2013-01-24 00:12:00,32.9,3.4,29.81,NE,47,2.7,2.7,28,0.00,,CLR,0.00,VWS V14.01,2013-01-24 05:12:00,
2013-01-24 00:17:00,33.3,1.2,29.81,WNW,297,0.0,0.0,25,0.00,,CLR,0.00,VWS V14.01,2013-01-24 05:17:00,
2013-01-24 00:23:00,33.1,1.1,29.81,WNW,297,0.0,0.0,25,0.00,,CLR,0.00,VWS V14.01,2013-01-24 05:23:00,
2013-01-24 00:28:00,32.5,0.6,29.81,WNW,297,0.0,0.0,25,0.00,,CLR,0.00,VWS V14.01,2013-01-24 05:28:00,
2013-01-24 00:33:00,32.0,2.6,29.81,WNW,297,0.0,0.0,28,0.00,,CLR,0.00,VWS V14.01,2013-01-24 05:33:00,
2013-01-24 00:38:00,32.2,2.8,29.81,WNW,297,0.0,0.0,28,0.00,,CLR,0.00,VWS V14.01,2013-01-24 05:38:00,
2013-01-24 00:43:00,32.2,2.8,29.78,South,169,0.0,0.0,28,0.00,,CLR,0.00,VWS V14.01,2013-01-24 05:43:00,
2013-01-24 00:48:00,32.7,3.2,29.78,SSE,162,4.5,4.5,28,0.00,,CLR,0.00,VWS V14.01,2013-01-24 05:48:00,
2013-01-24 00:53:00,33.1,3.5,29.78,SSE,162,4.5,4.5,28,0.00,,CLR,0.00,VWS V14.01,2013-01-24 05:53:00,
2013-01-24 00:58:00,34.0,3.5,29.78,SW,224,0.0,3.1,27,0.00,,CLR,0.00,VWS V14.01,2013-01-24 05:58:00,
2013-01-24 01:03:00,35.2,4.6,29.78,WNW,285,4.9,6.3,27,0.00,,CLR,0.00,VWS V14.01,2013-01-24 06:03:00,
2013-01-24 01:08:00,35.6,2.4,29.78,SSW,198,2.7,2.7,24,0.00,,CLR,0.00,VWS V14.01,2013-01-24 06:08:00,
2013-01-24 01:13:00,35.8,2.5,29.78,ESE,109,0.0,5.8,24,0.00,,CLR,0.00,VWS V14.01,2013-01-24 06:13:00,
2013-01-24 01:19:00,36.3,3.0,29.78,NW,313,4.9,10.5,24,0.00,,CLR,0.00,VWS V14.01,2013-01-24 06:19:00,
2013-01-24 01:24:00,36.5,3.2,29.78,WSW,247,7.6,9.6,24,0.00,,CLR,0.00,VWS V14.01,2013-01-24 06:24:00,
2013-01-24 01:29:00,36.7,3.3,29.75,SSE,160,5.8,5.8,24,0.00,,CLR,0.00,VWS V14.01,2013-01-24 06:29:00,
2013-01-24 01:34:00,36.7,3.3,29.75,SSE,167,3.1,6.3,24,0.00,,CLR,0.00,VWS V14.01,2013-01-24 06:34:00,
2013-01-24 01:39:00,36.7,3.3,29.75,West,268,3.6,3.6,24,0.00,,CLR,0.00,VWS V14.01,2013-01-24 06:39:00,
2013-01-24 01:44:00,36.7,3.3,29.75,NE,37,3.6,4.9,24,0.00,,CLR,0.00,VWS V14.01,2013-01-24 06:44:00,
2013-01-24 01:50:00,36.7,5.9,29.75,SW,235,5.8,5.8,27,0.00,,CLR,0.00,VWS V14.01,2013-01-24 06:50:00,
2013-01-24 01:55:00,36.7,5.9,29.75,SSW,194,4.9,5.4,27,0.00,,CLR,0.00,VWS V14.01,2013-01-24 06:55:00,
2013-01-24 02:00:00,36.7,5.9,29.75,SSW,202,2.7,3.1,27,0.00,,CLR,0.00,VWS V14.01,2013-01-24 07:00:00,
2013-01-24 02:05:00,36.7,5.9,29.75,WNW,283,2.7,6.3,27,0.00,,CLR,0.00,VWS V14.01,2013-01-24 07:05:00,
2013-01-24 02:10:00,36.7,5.9,29.75,SW,236,5.4,8.3,27,0.00,,CLR,0.00,VWS V14.01,2013-01-24 07:10:00,
2013-01-24 02:15:00,36.7,5.9,29.75,SSE,154,3.1,3.1,27,0.00,,CLR,0.00,VWS V14.01,2013-01-24 07:15:00,
2013-01-24 02:20:00,36.7,7.4,29.75,SSW,203,5.8,5.8,29,0.00,,CLR,0.00,VWS V14.01,2013-01-24 07:20:00,
2013-01-24 02:25:00,36.7,7.4,29.75,West,279,4.0,4.0,29,0.00,,CLR,0.00,VWS V14.01,2013-01-24 07:25:00,
2013-01-24 02:30:00,37.0,6.2,29.75,South,179,3.1,5.8,27,0.00,,CLR,0.00,VWS V14.01,2013-01-24 07:30:00,
2013-01-24 02:35:00,37.2,6.3,29.75,SW,231,0.0,0.0,27,0.00,,CLR,0.00,VWS V14.01,2013-01-24 07:35:00,
2013-01-24 02:40:00,37.0,6.2,29.75,North,10,5.8,5.8,27,0.00,,CLR,0.00,VWS V14.01,2013-01-24 07:40:00,
2013-01-24 02:45:00,37.2,6.3,29.75,WSW,257,3.1,5.4,27,0.00,,CLR,0.00,VWS V14.01,2013-01-24 07:45:00,
2013-01-24 02:50:00,37.2,6.3,29.75,East,92,2.7,3.1,27,0.00,,CLR,0.00,VWS V14.01,2013-01-24 07:50:00,
2013-01-24 02:55:00,37.2,6.3,29.75,NE,53,4.9,4.9,27,0.00,,CLR,0.00,VWS V14.01,2013-01-24 07:55:00,
2013-01-24 03:00:00,37.4,5.7,29.75,West,277,9.6,10.1,26,0.00,,CLR,0.00,VWS V14.01,2013-01-24 08:00:00,
2013-01-24 03:06:00,37.4,3.9,29.75,SSW,207,4.0,4.5,24,0.00,,CLR,0.00,VWS V14.01,2013-01-24 08:06:00,
2013-01-24 03:11:00,37.2,3.8,29.75,West,266,2.7,6.3,24,0.00,,CLR,0.00,VWS V14.01,2013-01-24 08:11:00,
2013-01-24 03:16:00,37.0,6.2,29.75,North,2,6.3,6.3,27,0.00,,CLR,0.00,VWS V14.01,2013-01-24 08:16:00,
2013-01-24 03:21:00,37.4,5.7,29.75,SSE,156,5.4,5.4,26,0.00,,CLR,0.00,VWS V14.01,2013-01-24 08:21:00,
2013-01-24 03:26:00,37.4,3.9,29.75,NE,49,3.1,4.9,24,0.00,,CLR,0.00,VWS V14.01,2013-01-24 08:26:00,
2013-01-24 03:31:00,37.2,3.8,29.75,SSW,197,8.7,8.7,24,0.00,,CLR,0.00,VWS V14.01,2013-01-24 08:31:00,
2013-01-24 03:36:00,37.2,3.8,29.75,SSE,158,4.5,4.5,24,0.00,,CLR,0.00,VWS V14.01,2013-01-24 08:36:00,
2013-01-24 03:41:00,37.0,3.6,29.75,SW,218,5.4,7.6,24,0.00,,CLR,0.00,VWS V14.01,2013-01-24 08:41:00,
2013-01-24 03:46:00,37.2,3.8,29.75,West,262,7.6,7.6,24,0.00,,CLR,0.00,VWS V14.01,2013-01-24 08:46:00,
2013-01-24 03:51:00,37.0,3.6,29.75,North,357,8.3,8.3,24,0.00,,CLR,0.00,VWS V14.01,2013-01-24 08:51:00,
2013-01-24 03:56:00,37.0,3.6,29.75,WNW,301,3.6,8.3,24,0.00,,CLR,0.00,VWS V14.01,2013-01-24 08:56:00,
2013-01-24 04:01:00,37.0,3.6,29.72,ENE,75,3.6,5.8,24,0.00,,CLR,0.00,VWS V14.01,2013-01-24 09:01:00,
2013-01-24 04:06:00,37.0,3.6,29.72,SSW,194,7.6,7.6,24,0.00,,CLR,0.00,VWS V14.01,2013-01-24 09:06:00,
2013-01-24 04:11:00,37.4,3.9,29.72,West,271,5.8,7.2,24,0.00,,CLR,0.00,VWS V14.01,2013-01-24 09:11:00,
2013-01-24 04:16:00,37.2,3.8,29.75,SW,221,2.7,5.4,24,0.00,,CLR,0.00,VWS V14.01,2013-01-24 09:16:00,
2013-01-24 04:22:00,37.4,3.9,29.75,WNW,288,10.1,10.5,24,0.00,,CLR,0.00,VWS V14.01,2013-01-24 09:22:00,
2013-01-24 04:27:00,37.4,3.9,29.75,South,184,4.0,8.1,24,0.00,,CLR,0.00,VWS V14.01,2013-01-24 09:27:00,
2013-01-24 04:32:00,37.4,3.9,29.72,WSW,237,4.0,8.1,24,0.00,,CLR,0.00,VWS V14.01,2013-01-24 09:32:00,
2013-01-24 04:37:00,37.2,3.8,29.72,SSE,154,3.1,5.4,24,0.00,,CLR,0.00,VWS V14.01,2013-01-24 09:37:00,
2013-01-24 04:42:00,37.2,3.8,29.72,ENE,68,6.3,6.3,24,0.00,,CLR,0.00,VWS V14.01,2013-01-24 09:42:00,
2013-01-24 04:47:00,37.0,3.6,29.75,ENE,74,0.0,5.4,24,0.00,,CLR,0.00,VWS V14.01,2013-01-24 09:47:00,
2013-01-24 04:52:00,36.9,3.5,29.75,SE,131,3.6,6.3,24,0.00,,CLR,0.00,VWS V14.01,2013-01-24 09:52:00,
2013-01-24 04:57:00,36.9,3.5,29.75,South,180,5.4,5.4,24,0.00,,CLR,0.00,VWS V14.01,2013-01-24 09:57:00,
2013-01-24 05:02:00,36.7,3.3,29.72,West,267,3.1,5.8,24,0.00,,CLR,0.00,VWS V14.01,2013-01-24 10:02:00,
2013-01-24 05:07:00,36.7,3.3,29.72,WNW,284,4.0,6.3,24,0.00,,CLR,0.00,VWS V14.01,2013-01-24 10:07:00,
2013-01-24 05:12:00,36.5,3.2,29.72,South,182,2.7,4.0,24,0.00,,CLR,0.00,VWS V14.01,2013-01-24 10:12:00,
2013-01-24 05:17:00,36.3,3.0,29.75,East,82,6.3,6.3,24,0.00,,CLR,0.00,VWS V14.01,2013-01-24 10:17:00,
2013-01-24 05:22:00,36.3,3.0,29.75,WNW,297,4.0,4.0,24,0.00,,CLR,0.00,VWS V14.01,2013-01-24 10:22:00,
2013-01-24 05:27:00,36.1,2.8,29.72,WSW,256,4.9,7.2,24,0.00,,CLR,0.00,VWS V14.01,2013-01-24 10:27:00,
2013-01-24 05:33:00,36.1,2.8,29.72,North,353,2.7,4.0,24,0.00,,CLR,0.00,VWS V14.01,2013-01-24 10:33:00,
2013-01-24 05:38:00,36.1,2.8,29.72,NNE,29,14.1,14.1,24,0.00,,CLR,0.00,VWS V14.01,2013-01-24 10:38:00,
2013-01-24 05:43:00,36.0,2.7,29.75,NNE,16,10.5,10.5,24,0.00,,CLR,0.00,VWS V14.01,2013-01-24 10:43:00,
2013-01-24 05:48:00,36.1,2.8,29.75,SSW,207,4.5,7.6,24,0.00,,CLR,0.00,VWS V14.01,2013-01-24 10:48:00,
2013-01-24 05:53:00,36.1,2.8,29.75,ESE,112,5.4,5.4,24,0.00,,CLR,0.00,VWS V14.01,2013-01-24 10:53:00,
2013-01-24 05:58:00,36.0,2.7,29.75,East,98,2.2,2.2,24,0.00,,CLR,0.00,VWS V14.01,2013-01-24 10:58:00,
2013-01-24 06:03:00,35.6,0.5,29.75,NNE,19,4.0,4.0,22,0.00,,CLR,0.00,VWS V14.01,2013-01-24 11:03:00,
2013-01-24 06:08:00,35.6,0.5,29.75,SSW,201,11.0,11.0,22,0.00,,CLR,0.00,VWS V14.01,2013-01-24 11:08:00,
2013-01-24 06:13:00,35.6,0.5,29.75,South,173,12.8,12.8,22,0.00,,CLR,0.00,VWS V14.01,2013-01-24 11:13:00,
2013-01-24 06:19:00,35.4,0.4,29.75,NW,315,4.9,4.9,22,0.00,,CLR,0.00,VWS V14.01,2013-01-24 11:19:00,
2013-01-24 06:24:00,35.2,0.2,29.75,SSE,159,3.6,6.7,22,0.00,,CLR,0.00,VWS V14.01,2013-01-24 11:24:00,
2013-01-24 06:29:00,35.4,0.4,29.75,SE,144,7.2,7.2,22,0.00,,CLR,0.00,VWS V14.01,2013-01-24 11:29:00,
2013-01-24 06:34:00,35.4,0.4,29.75,SE,135,3.6,6.3,22,0.00,,CLR,0.00,VWS V14.01,2013-01-24 11:34:00,
2013-01-24 06:39:00,35.1,0.1,29.75,South,184,2.7,5.4,22,0.00,,CLR,0.00,VWS V14.01,2013-01-24 11:39:00,
2013-01-24 06:44:00,34.9,-0.1,29.75,WSW,258,3.6,7.2,22,0.00,,CLR,0.00,VWS V14.01,2013-01-24 11:44:00,
2013-01-24 06:49:00,34.9,-0.1,29.75,North,350,2.7,2.7,22,0.00,,CLR,0.00,VWS V14.01,2013-01-24 11:49:00,
2013-01-24 06:54:00,34.9,-0.1,29.75,NNE,13,5.4,5.4,22,0.00,,CLR,0.00,VWS V14.01,2013-01-24 11:54:00,
2013-01-24 06:59:00,35.1,0.1,29.75,SE,136,5.8,8.7,22,0.00,,CLR,0.00,VWS V14.01,2013-01-24 11:59:00,
2013-01-24 07:04:00,34.9,-0.1,29.75,West,275,4.0,4.0,22,0.00,,CLR,0.00,VWS V14.01,2013-01-24 12:04:00,
2013-01-24 07:09:00,34.9,-0.1,29.75,SSE,163,6.3,7.6,22,0.00,,CLR,0.00,VWS V14.01,2013-01-24 12:09:00,
2013-01-24 07:14:00,34.9,-0.1,29.75,NE,50,5.8,8.1,22,0.00,,CLR,0.00,VWS V14.01,2013-01-24 12:14:00,
2013-01-24 07:20:00,34.9,-0.1,29.75,East,83,3.1,3.1,22,0.00,,CLR,0.00,VWS V14.01,2013-01-24 12:20:00,
2013-01-24 07:25:00,34.9,-0.1,29.75,East,94,5.4,6.3,22,0.00,,CLR,0.00,VWS V14.01,2013-01-24 12:25:00,
2013-01-24 07:30:00,34.7,-0.2,29.75,ESE,118,4.0,7.6,22,0.00,,CLR,0.00,VWS V14.01,2013-01-24 12:30:00,
2013-01-24 07:35:00,34.5,-0.4,29.75,ESE,109,2.7,6.3,22,0.00,,CLR,0.00,VWS V14.01,2013-01-24 12:35:00,
2013-01-24 07:40:00,34.5,-0.4,29.75,SSE,168,4.0,5.4,22,0.00,,CLR,0.00,VWS V14.01,2013-01-24 12:40:00,
2013-01-24 07:45:00,34.3,-0.6,29.75,NE,41,8.1,10.5,22,0.00,,CLR,0.00,VWS V14.01,2013-01-24 12:45:00,
2013-01-24 07:50:00,34.3,-0.6,29.75,East,82,3.1,7.6,22,0.00,,CLR,0.00,VWS V14.01,2013-01-24 12:50:00,
2013-01-24 07:55:00,34.2,-0.7,29.75,NE,49,4.0,4.0,22,0.00,,CLR,0.00,VWS V14.01,2013-01-24 12:55:00,
2013-01-24 08:00:00,34.2,-0.7,29.78,WSW,248,6.3,8.3,22,0.00,,CLR,0.00,VWS V14.01,2013-01-24 13:00:00,
2013-01-24 08:05:00,34.0,-0.9,29.78,West,281,7.6,11.0,22,0.00,,CLR,0.00,VWS V14.01,2013-01-24 13:05:00,
2013-01-24 08:11:00,34.2,-0.7,29.78,ENE,69,5.8,8.7,22,0.00,,CLR,0.00,VWS V14.01,2013-01-24 13:11:00,
2013-01-24 08:16:00,34.3,-0.6,29.78,NNE,33,5.4,6.3,22,0.00,,CLR,0.00,VWS V14.01,2013-01-24 13:16:00,
2013-01-24 08:21:00,34.2,-0.7,29.78,SE,145,5.4,5.4,22,0.00,,CLR,0.00,VWS V14.01,2013-01-24 13:21:00,
2013-01-24 08:26:00,34.2,-0.7,29.78,North,8,6.3,10.1,22,0.00,,CLR,0.00,VWS V14.01,2013-01-24 13:26:00,
2013-01-24 08:31:00,34.3,-0.6,29.78,NNE,26,6.3,7.6,22,0.00,,CLR,0.00,VWS V14.01,2013-01-24 13:31:00,
2013-01-24 08:36:00,34.3,-0.6,29.78,East,86,7.6,7.6,22,0.00,,CLR,0.00,VWS V14.01,2013-01-24 13:36:00,
2013-01-24 08:41:00,34.7,-0.2,29.78,North,357,7.6,7.6,22,0.00,,CLR,0.00,VWS V14.01,2013-01-24 13:41:00,
2013-01-24 08:46:00,35.2,0.2,29.78,WSW,253,4.0,8.3,22,0.00,,CLR,0.00,VWS V14.01,2013-01-24 13:46:00,
2013-01-24 08:51:00,35.6,0.5,29.78,WSW,258,2.7,4.9,22,0.00,,CLR,0.00,VWS V14.01,2013-01-24 13:51:00,
2013-01-24 08:56:00,36.0,0.8,29.78,SSW,211,8.7,8.7,22,0.00,,CLR,0.00,VWS V14.01,2013-01-24 13:56:00,
2013-01-24 09:01:00,36.0,0.8,29.81,NNE,17,7.6,7.6,22,0.00,,CLR,0.00,VWS V14.01,2013-01-24 14:01:00,
2013-01-24 09:07:00,36.1,1.0,29.81,ENE,60,3.6,4.9,22,0.00,,CLR,0.00,VWS V14.01,2013-01-24 14:07:00,
2013-01-24 09:12:00,36.7,1.4,29.81,NW,310,5.8,6.3,22,0.00,,CLR,0.00,VWS V14.01,2013-01-24 14:12:00,
2013-01-24 09:17:00,36.9,1.6,29.81,South,182,3.1,6.3,22,0.00,,CLR,0.00,VWS V14.01,2013-01-24 14:17:00,
2013-01-24 09:22:00,36.7,1.4,29.81,NNE,21,4.0,8.3,22,0.00,,CLR,0.00,VWS V14.01,2013-01-24 14:22:00,
2013-01-24 09:27:00,36.9,1.6,29.81,ESE,115,2.7,10.1,22,0.00,,CLR,0.00,VWS V14.01,2013-01-24 14:27:00,
2013-01-24 09:32:00,37.4,1.0,29.81,WSW,245,2.2,3.1,21,0.00,,CLR,0.00,VWS V14.01,2013-01-24 14:32:00,
2013-01-24 09:37:00,37.9,1.5,29.81,East,88,3.6,5.4,21,0.00,,CLR,0.00,VWS V14.01,2013-01-24 14:37:00,
2013-01-24 09:42:00,38.5,2.0,29.81,North,353,5.4,5.4,21,0.00,,CLR,0.00,VWS V14.01,2013-01-24 14:42:00,
2013-01-24 09:47:00,38.8,2.3,29.84,NNE,27,3.1,4.9,21,0.00,,CLR,0.00,VWS V14.01,2013-01-24 14:47:00,
2013-01-24 09:52:00,39.2,2.6,29.84,ESE,106,2.2,7.6,21,0.00,,CLR,0.00,VWS V14.01,2013-01-24 14:52:00,
2013-01-24 09:57:00,39.4,2.7,29.84,NE,36,4.9,9.6,21,0.00,,CLR,0.00,VWS V14.01,2013-01-24 14:57:00,
2013-01-24 10:02:00,40.5,3.6,29.84,NNE,28,6.3,6.3,21,0.00,,CLR,0.00,VWS V14.01,2013-01-24 15:02:00,
2013-01-24 10:07:00,41.0,4.1,29.84,NNW,327,11.0,11.0,21,0.00,,CLR,0.00,VWS V14.01,2013-01-24 15:07:00,
2013-01-24 10:12:00,42.3,5.1,29.87,WNW,297,3.6,4.9,21,0.00,,CLR,0.00,VWS V14.01,2013-01-24 15:12:00,
2013-01-24 10:17:00,44.1,5.6,29.87,WNW,284,5.8,5.8,20,0.00,,CLR,0.00,VWS V14.01,2013-01-24 15:17:00,
2013-01-24 10:22:00,43.7,5.3,29.87,NNE,21,8.7,8.7,20,0.00,,CLR,0.00,VWS V14.01,2013-01-24 15:22:00,
2013-01-24 10:28:00,44.1,5.6,29.87,West,259,5.4,11.9,20,0.00,,CLR,0.00,VWS V14.01,2013-01-24 15:28:00,
2013-01-24 10:33:00,45.3,6.6,29.87,NNE,23,3.1,8.3,20,0.00,,CLR,0.00,VWS V14.01,2013-01-24 15:33:00,
2013-01-24 10:38:00,46.0,7.2,29.87,North,357,4.0,5.8,20,0.00,,CLR,0.00,VWS V14.01,2013-01-24 15:38:00,
2013-01-24 10:43:00,47.3,7.1,29.87,WNW,297,3.6,3.6,19,0.00,,CLR,0.00,VWS V14.01,2013-01-24 15:43:00,
2013-01-24 10:48:00,48.2,7.9,29.87,South,176,4.0,5.8,19,0.00,,CLR,0.00,VWS V14.01,2013-01-24 15:48:00,
2013-01-24 10:53:00,48.7,8.3,29.87,NNE,18,2.2,5.8,19,0.00,,CLR,0.00,VWS V14.01,2013-01-24 15:53:00,
2013-01-24 10:58:00,48.6,8.2,29.87,SE,146,6.3,6.3,19,0.00,,CLR,0.00,VWS V14.01,2013-01-24 15:58:00,
2013-01-24 11:03:00,49.5,8.9,29.87,NNW,344,4.0,8.1,19,0.00,,CLR,0.00,VWS V14.01,2013-01-24 16:03:00,
2013-01-24 11:08:00,49.3,8.8,29.87,West,279,3.6,6.3,19,0.00,,CLR,0.00,VWS V14.01,2013-01-24 16:08:00,
2013-01-24 11:14:00,51.1,10.3,29.90,East,91,2.7,3.1,19,0.00,,CLR,0.00,VWS V14.01,2013-01-24 16:14:00,
2013-01-24 11:19:00,50.9,10.1,29.90,SSW,204,4.0,4.9,19,0.00,,CLR,0.00,VWS V14.01,2013-01-24 16:19:00,
2013-01-24 11:24:00,51.6,10.7,29.90,SSW,202,5.4,5.4,19,0.00,,CLR,0.00,VWS V14.01,2013-01-24 16:24:00,
2013-01-24 11:29:00,51.6,10.7,29.90,WSW,239,4.0,5.8,19,0.00,,CLR,0.00,VWS V14.01,2013-01-24 16:29:00,
2013-01-24 11:34:00,52.2,10.0,29.90,NNE,32,3.1,7.2,18,0.00,,CLR,0.00,VWS V14.01,2013-01-24 16:34:00,
2013-01-24 11:39:00,52.2,10.0,29.90,ESE,106,2.7,5.4,18,0.00,,CLR,0.00,VWS V14.01,2013-01-24 16:39:00,
2013-01-24 11:44:00,53.2,10.9,29.90,ENE,62,3.1,3.1,18,0.00,,CLR,0.00,VWS V14.01,2013-01-24 16:44:00,
2013-01-24 11:49:00,54.3,11.7,29.90,SW,234,5.8,5.8,18,0.00,,CLR,0.00,VWS V14.01,2013-01-24 16:49:00,
2013-01-24 11:54:00,53.4,11.0,29.90,ESE,110,2.7,5.4,18,0.00,,CLR,0.00,VWS V14.01,2013-01-24 16:54:00,
2013-01-24 11:59:00,54.1,11.6,29.90,SSW,212,5.8,5.8,18,0.00,,CLR,0.00,VWS V14.01,2013-01-24 16:59:00,
2013-01-24 12:04:00,54.3,11.7,29.90,NE,49,2.7,3.1,18,0.00,,CLR,0.00,VWS V14.01,2013-01-24 17:04:00,
2013-01-24 12:09:00,53.8,11.3,29.90,NNW,341,3.6,7.2,18,0.00,,CLR,0.00,VWS V14.01,2013-01-24 17:09:00,
2013-01-24 12:15:00,53.6,11.1,29.90,North,353,3.6,5.8,18,0.00,,CLR,0.00,VWS V14.01,2013-01-24 17:15:00,
2013-01-24 12:20:00,54.1,11.6,29.90,WSW,237,3.6,7.6,18,0.00,,CLR,0.00,VWS V14.01,2013-01-24 17:20:00,
2013-01-24 12:25:00,54.9,12.2,29.90,SE,142,5.4,5.4,18,0.00,,CLR,0.00,VWS V14.01,2013-01-24 17:25:00,
2013-01-24 12:30:00,55.2,12.5,29.90,North,11,3.1,3.6,18,0.00,,CLR,0.00,VWS V14.01,2013-01-24 17:30:00,
2013-01-24 12:35:00,54.9,12.2,29.90,NNW,329,2.7,4.0,18,0.00,,CLR,0.00,VWS V14.01,2013-01-24 17:35:00,
2013-01-24 12:40:00,55.0,12.3,29.90,SSW,193,4.0,5.8,18,0.00,,CLR,0.00,VWS V14.01,2013-01-24 17:40:00,
2013-01-24 12:45:00,55.0,12.3,29.90,SSW,199,4.9,4.9,18,0.00,,CLR,0.00,VWS V14.01,2013-01-24 17:45:00,
2013-01-24 12:51:00,55.0,12.3,29.90,WNW,301,3.6,3.6,18,0.00,,CLR,0.00,VWS V14.01,2013-01-24 17:51:00,
2013-01-24 12:56:00,55.0,12.3,29.90,NE,54,5.4,5.4,18,0.00,,CLR,0.00,VWS V14.01,2013-01-24 17:56:00,
2013-01-24 13:01:00,55.4,11.3,29.90,ESE,105,3.6,3.6,17,0.00,,CLR,0.00,VWS V14.01,2013-01-24 18:01:00,
2013-01-24 13:06:00,56.1,11.9,29.90,SSW,206,3.1,5.8,17,0.00,,CLR,0.00,VWS V14.01,2013-01-24 18:06:00,
2013-01-24 13:11:00,55.8,11.6,29.90,WSW,244,4.0,7.6,17,0.00,,CLR,0.00,VWS V14.01,2013-01-24 18:11:00,
2013-01-24 13:16:00,56.5,12.2,29.90,South,177,2.2,5.8,17,0.00,,CLR,0.00,VWS V14.01,2013-01-24 18:16:00,
2013-01-24 13:21:00,57.2,12.8,29.90,SSW,195,2.2,5.4,17,0.00,,CLR,0.00,VWS V14.01,2013-01-24 18:21:00,
2013-01-24 13:26:00,57.2,12.8,29.90,WSW,256,5.8,7.6,17,0.00,,CLR,0.00,VWS V14.01,2013-01-24 18:26:00,
2013-01-24 13:31:00,57.6,13.1,29.90,WNW,289,4.0,5.4,17,0.00,,CLR,0.00,VWS V14.01,2013-01-24 18:31:00,
2013-01-24 13:36:00,57.9,13.4,29.90,SSE,167,4.0,4.9,17,0.00,,CLR,0.00,VWS V14.01,2013-01-24 18:36:00,
2013-01-24 13:41:00,58.5,13.8,29.90,SE,124,6.3,6.7,17,0.00,,CLR,0.00,VWS V14.01,2013-01-24 18:41:00,
2013-01-24 13:47:00,58.6,14.0,29.90,WSW,240,5.4,7.6,17,0.00,,CLR,0.00,VWS V14.01,2013-01-24 18:47:00,
2013-01-24 13:52:00,57.6,13.1,29.90,ESE,102,2.7,5.8,17,0.00,,CLR,0.00,VWS V14.01,2013-01-24 18:52:00,
2013-01-24 13:57:00,57.9,13.4,29.90,WNW,303,5.4,5.4,17,0.00,,CLR,0.00,VWS V14.01,2013-01-24 18:57:00,
2013-01-24 14:02:00,58.1,13.5,29.93,WSW,239,5.8,5.8,17,0.00,,CLR,0.00,VWS V14.01,2013-01-24 19:02:00,
2013-01-24 14:07:00,58.3,13.7,29.93,WNW,290,3.1,5.8,17,0.00,,CLR,0.00,VWS V14.01,2013-01-24 19:07:00,
2013-01-24 14:12:00,58.3,13.7,29.93,NE,47,0.0,3.1,17,0.00,,CLR,0.00,VWS V14.01,2013-01-24 19:12:00,
2013-01-24 14:17:00,57.7,13.2,29.93,SSE,155,5.8,6.3,17,0.00,,CLR,0.00,VWS V14.01,2013-01-24 19:17:00,
2013-01-24 14:22:00,57.4,12.9,29.93,SE,133,2.2,4.0,17,0.00,,CLR,0.00,VWS V14.01,2013-01-24 19:22:00,
2013-01-24 14:27:00,56.8,12.5,29.93,ESE,110,2.2,2.2,17,0.00,,CLR,0.00,VWS V14.01,2013-01-24 19:27:00,
2013-01-24 14:32:00,55.9,11.8,29.93,ENE,76,5.8,5.8,17,0.00,,CLR,0.00,VWS V14.01,2013-01-24 19:32:00,
2013-01-24 14:37:00,55.9,11.8,29.93,ESE,115,2.7,2.7,17,0.00,,CLR,0.00,VWS V14.01,2013-01-24 19:37:00,
2013-01-24 14:42:00,56.3,12.1,29.93,SW,230,0.0,3.6,17,0.00,,CLR,0.00,VWS V14.01,2013-01-24 19:42:00,
2013-01-24 14:47:00,56.8,12.5,29.93,East,83,4.9,5.8,17,0.00,,CLR,0.00,VWS V14.01,2013-01-24 19:47:00,
2013-01-24 14:52:00,56.7,12.4,29.93,East,99,4.0,5.4,17,0.00,,CLR,0.00,VWS V14.01,2013-01-24 19:52:00,
2013-01-24 14:57:00,56.3,12.1,29.93,ESE,118,0.0,0.0,17,0.00,,CLR,0.00,VWS V14.01,2013-01-24 19:57:00,
2013-01-24 15:03:00,56.7,12.4,29.93,East,101,5.4,6.7,17,0.00,,CLR,0.00,VWS V14.01,2013-01-24 20:03:00,
2013-01-24 15:08:00,55.2,12.5,29.93,East,84,3.1,6.3,18,0.00,,CLR,0.00,VWS V14.01,2013-01-24 20:08:00,
2013-01-24 15:13:00,54.1,11.6,29.93,SE,137,2.7,4.9,18,0.00,,CLR,0.00,VWS V14.01,2013-01-24 20:13:00,
2013-01-24 15:18:00,52.9,10.6,29.93,ESE,110,5.4,8.7,18,0.00,,CLR,0.00,VWS V14.01,2013-01-24 20:18:00,
2013-01-24 15:23:00,53.8,11.3,29.93,ENE,59,4.0,8.1,18,0.00,,CLR,0.00,VWS V14.01,2013-01-24 20:23:00,
2013-01-24 15:28:00,53.2,10.9,29.93,SE,125,5.8,6.3,18,0.00,,CLR,0.00,VWS V14.01,2013-01-24 20:28:00,
2013-01-24 15:33:00,52.0,9.8,29.93,East,99,5.4,5.4,18,0.00,,CLR,0.00,VWS V14.01,2013-01-24 20:33:00,
2013-01-24 15:38:00,49.6,9.1,29.93,WNW,298,0.0,2.7,19,0.00,,CLR,0.00,VWS V14.01,2013-01-24 20:38:00,
2013-01-24 15:43:00,48.2,7.9,29.96,SSW,192,0.0,3.1,19,0.00,,CLR,0.00,VWS V14.01,2013-01-24 20:43:00,
2013-01-24 15:49:00,47.1,7.0,29.96,East,83,0.0,2.7,19,0.00,,CLR,0.00,VWS V14.01,2013-01-24 20:49:00,
2013-01-24 15:54:00,46.6,6.5,29.96,North,357,3.6,3.6,19,0.00,,CLR,0.00,VWS V14.01,2013-01-24 20:54:00,
2013-01-24 15:59:00,45.7,6.9,29.96,ENE,59,3.1,4.5,20,0.00,,CLR,0.00,VWS V14.01,2013-01-24 20:59:00,
2013-01-24 16:04:00,44.6,6.0,29.96,SSE,161,0.0,2.7,20,0.00,,CLR,0.00,VWS V14.01,2013-01-24 21:04:00,
2013-01-24 16:09:00,43.2,4.8,29.96,SE,134,0.0,0.0,20,0.00,,CLR,0.00,VWS V14.01,2013-01-24 21:09:00,
2013-01-24 16:14:00,42.1,5.0,29.93,SE,144,0.0,2.7,21,0.00,,CLR,0.00,VWS V14.01,2013-01-24 21:14:00,
2013-01-24 16:19:00,41.2,4.2,29.93,SSE,161,2.7,2.7,21,0.00,,CLR,0.00,VWS V14.01,2013-01-24 21:19:00,
2013-01-24 16:24:00,40.5,3.6,29.93,North,7,3.6,4.0,21,0.00,,CLR,0.00,VWS V14.01,2013-01-24 21:24:00,
2013-01-24 16:29:00,40.5,3.6,29.96,SSE,152,3.1,4.0,21,0.00,,CLR,0.00,VWS V14.01,2013-01-24 21:29:00,
2013-01-24 16:34:00,39.7,3.0,29.96,NW,311,2.2,3.1,21,0.00,,CLR,0.00,VWS V14.01,2013-01-24 21:34:00,
2013-01-24 16:39:00,40.1,3.3,29.96,SSW,202,2.2,5.8,21,0.00,,CLR,0.00,VWS V14.01,2013-01-24 21:39:00,
2013-01-24 16:44:00,40.3,3.5,29.96,SE,129,0.0,2.2,21,0.00,,CLR,0.00,VWS V14.01,2013-01-24 21:44:00,
2013-01-24 16:50:00,39.7,3.0,29.96,East,98,0.0,0.0,21,0.00,,CLR,0.00,VWS V14.01,2013-01-24 21:50:00,
2013-01-24 16:55:00,39.7,3.0,29.96,NE,42,0.0,0.0,21,0.00,,CLR,0.00,VWS V14.01,2013-01-24 21:55:00,
2013-01-24 17:00:00,39.4,2.7,29.96,East,91,0.0,0.0,21,0.00,,CLR,0.00,VWS V14.01,2013-01-24 22:00:00,
2013-01-24 17:05:00,38.5,2.0,29.96,NNE,23,0.0,2.7,21,0.00,,CLR,0.00,VWS V14.01,2013-01-24 22:05:00,
2013-01-24 17:10:00,37.8,1.4,29.96,WNW,297,2.7,3.1,21,0.00,,CLR,0.00,VWS V14.01,2013-01-24 22:10:00,
2013-01-24 17:15:00,37.2,1.9,29.99,SSW,192,3.1,4.9,22,0.00,,CLR,0.00,VWS V14.01,2013-01-24 22:15:00,
2013-01-24 17:20:00,36.9,1.6,29.99,SSW,194,0.0,0.0,22,0.00,,CLR,0.00,VWS V14.01,2013-01-24 22:20:00,
2013-01-24 17:25:00,36.1,1.0,29.99,SSW,192,0.0,4.0,22,0.00,,CLR,0.00,VWS V14.01,2013-01-24 22:25:00,
2013-01-24 17:30:00,35.4,0.4,29.99,NE,45,4.9,4.9,22,0.00,,CLR,0.00,VWS V14.01,2013-01-24 22:30:00,
2013-01-24 17:35:00,34.2,-0.7,29.99,NE,48,3.1,3.1,22,0.00,,CLR,0.00,VWS V14.01,2013-01-24 22:35:00,
2013-01-24 17:40:00,33.1,-0.7,29.99,NNE,24,0.0,0.0,23,0.00,,CLR,0.00,VWS V14.01,2013-01-24 22:40:00,
2013-01-24 17:45:00,32.0,-1.6,29.99,South,175,0.0,0.0,23,0.00,,CLR,0.00,VWS V14.01,2013-01-24 22:45:00,
2013-01-24 17:50:00,31.1,-2.4,29.99,South,180,0.0,0.0,23,0.00,,CLR,0.00,VWS V14.01,2013-01-24 22:50:00,
2013-01-24 17:55:00,30.2,-3.1,29.99,South,180,0.0,0.0,23,0.00,,CLR,0.00,VWS V14.01,2013-01-24 22:55:00,
2013-01-24 18:00:00,29.5,-3.7,29.99,South,180,0.0,0.0,23,0.00,,CLR,0.00,VWS V14.01,2013-01-24 23:00:00,
2013-01-24 18:05:00,28.8,-4.3,29.99,WSW,243,3.6,3.6,23,0.00,,CLR,0.00,VWS V14.01,2013-01-24 23:05:00,
2013-01-24 18:10:00,28.4,-4.7,29.99,SSE,150,0.0,0.0,23,0.00,,CLR,0.00,VWS V14.01,2013-01-24 23:10:00,
2013-01-24 18:15:00,27.9,-5.1,29.99,SSE,150,0.0,0.0,23,0.00,,CLR,0.00,VWS V14.01,2013-01-24 23:15:00,
2013-01-24 18:20:00,27.3,-5.6,29.99,SSE,150,0.0,0.0,23,0.00,,CLR,0.00,VWS V14.01,2013-01-24 23:20:00,
2013-01-24 18:25:00,27.0,-5.9,29.99,SSE,150,0.0,0.0,23,0.00,,CLR,0.00,VWS V14.01,2013-01-24 23:25:00,
2013-01-24 18:31:00,26.4,-5.5,29.99,SSE,150,0.0,0.0,24,0.00,,CLR,0.00,VWS V14.01,2013-01-24 23:31:00,
2013-01-24 18:36:00,26.2,-5.6,29.99,South,190,0.0,0.0,24,0.00,,CLR,0.00,VWS V14.01,2013-01-24 23:36:00,
2013-01-24 18:41:00,26.2,-5.6,29.99,South,190,0.0,2.2,24,0.00,,CLR,0.00,VWS V14.01,2013-01-24 23:41:00,
2013-01-24 18:46:00,26.4,-5.5,29.99,WSW,241,0.0,0.0,24,0.00,,CLR,0.00,VWS V14.01,2013-01-24 23:46:00,
2013-01-24 18:51:00,26.2,-5.6,29.99,WSW,241,0.0,0.0,24,0.00,,CLR,0.00,VWS V14.01,2013-01-24 23:51:00,
2013-01-24 18:56:00,26.1,-5.8,29.99,WSW,241,0.0,0.0,24,0.00,,CLR,0.00,VWS V14.01,2013-01-24 23:56:00,
2013-01-24 19:01:00,25.9,-5.9,29.99,WSW,241,0.0,0.0,24,0.00,,CLR,0.00,VWS V14.01,2013-01-25 00:01:00,
2013-01-24 19:06:00,25.7,-6.1,29.99,WSW,248,0.0,0.0,24,0.00,,CLR,0.00,VWS V14.01,2013-01-25 00:06:00,
2013-01-24 19:11:00,25.3,-6.4,29.99,WSW,248,0.0,0.0,24,0.00,,CLR,0.00,VWS V14.01,2013-01-25 00:11:00,
2013-01-24 19:17:00,25.0,-6.7,30.02,WSW,248,0.0,0.0,24,0.00,,CLR,0.00,VWS V14.01,2013-01-25 00:17:00,
2013-01-24 19:22:00,24.8,-6.9,30.02,WSW,248,0.0,0.0,24,0.00,,CLR,0.00,VWS V14.01,2013-01-25 00:22:00,
2013-01-24 19:27:00,24.6,-7.0,30.02,WSW,248,2.2,2.2,24,0.00,,CLR,0.00,VWS V14.01,2013-01-25 00:27:00,
2013-01-24 19:32:00,24.4,-7.2,30.02,WSW,248,0.0,0.0,24,0.00,,CLR,0.00,VWS V14.01,2013-01-25 00:32:00,
2013-01-24 19:37:00,24.3,-7.3,30.02,WSW,248,0.0,0.0,24,0.00,,CLR,0.00,VWS V14.01,2013-01-25 00:37:00,
2013-01-24 19:42:00,24.3,-7.3,30.02,NNW,339,0.0,0.0,24,0.00,,CLR,0.00,VWS V14.01,2013-01-25 00:42:00,
2013-01-24 19:47:00,24.4,-7.2,30.02,NNW,339,0.0,0.0,24,0.00,,CLR,0.00,VWS V14.01,2013-01-25 00:47:00,
2013-01-24 19:52:00,24.4,-7.2,30.02,NNW,339,0.0,0.0,24,0.00,,CLR,1.22,VWS V14.01,2013-01-25 00:52:00,
2013-01-24 19:57:00,24.4,-7.2,30.02,NNW,339,0.0,0.0,24,0.00,,CLR,0.00,VWS V14.01,2013-01-25 00:57:00,
2013-01-24 20:03:00,24.6,-7.0,30.02,North,353,0.0,0.0,24,0.00,,CLR,0.00,VWS V14.01,2013-01-25 01:03:00,
2013-01-24 20:08:00,24.4,-7.2,30.02,North,353,0.0,0.0,24,0.00,,CLR,0.00,VWS V14.01,2013-01-25 01:08:00,
2013-01-24 20:13:00,24.3,-7.3,29.99,North,353,2.7,2.7,24,0.00,,CLR,0.00,VWS V14.01,2013-01-25 01:13:00,
2013-01-24 20:18:00,24.3,-7.3,29.99,North,353,0.0,0.0,24,0.00,,CLR,0.00,VWS V14.01,2013-01-25 01:18:00,
2013-01-24 20:23:00,24.3,-7.3,29.99,North,7,0.0,0.0,24,0.00,,CLR,0.00,VWS V14.01,2013-01-25 01:23:00,
2013-01-24 20:28:00,23.9,-7.6,30.02,North,7,2.2,2.7,24,0.00,,CLR,0.00,VWS V14.01,2013-01-25 01:28:00,
2013-01-24 20:33:00,23.7,-7.8,30.02,North,7,0.0,0.0,24,0.00,,CLR,0.00,VWS V14.01,2013-01-25 01:33:00,
2013-01-24 20:38:00,23.7,-7.8,30.02,North,7,0.0,0.0,24,0.00,,CLR,0.00,VWS V14.01,2013-01-25 01:38:00,
2013-01-24 20:43:00,23.7,-7.8,30.02,North,6,0.0,0.0,24,0.00,,CLR,0.00,VWS V14.01,2013-01-25 01:43:00,
2013-01-24 20:48:00,23.9,-7.6,30.02,NNE,15,4.0,4.0,24,0.00,,CLR,0.00,VWS V14.01,2013-01-25 01:48:00,
2013-01-24 20:53:00,24.3,-7.3,30.02,NNE,14,3.1,3.1,24,0.00,,CLR,0.00,VWS V14.01,2013-01-25 01:53:00,
2013-01-24 20:58:00,24.3,-7.3,30.02,NNE,14,0.0,2.2,24,0.00,,CLR,0.00,VWS V14.01,2013-01-25 01:58:00,
2013-01-24 21:03:00,23.7,-7.8,30.02,NNE,14,0.0,0.0,24,0.00,,CLR,0.00,VWS V14.01,2013-01-25 02:03:00,
2013-01-24 21:09:00,23.2,-8.2,30.02,NNE,14,0.0,0.0,24,0.00,,CLR,0.00,VWS V14.01,2013-01-25 02:09:00,
2013-01-24 21:14:00,23.0,-7.6,30.02,NNE,16,0.0,0.0,25,0.00,,CLR,0.00,VWS V14.01,2013-01-25 02:14:00,
2013-01-24 21:19:00,22.5,-8.0,30.02,NNE,16,0.0,0.0,25,0.00,,CLR,0.00,VWS V14.01,2013-01-25 02:19:00,
2013-01-24 21:24:00,22.5,-8.0,30.02,ENE,73,2.2,2.7,25,0.00,,CLR,0.00,VWS V14.01,2013-01-25 02:24:00,
2013-01-24 21:29:00,22.8,-7.7,30.05,ENE,73,2.7,2.7,25,0.00,,CLR,0.00,VWS V14.01,2013-01-25 02:29:00,
2013-01-24 21:34:00,22.8,-7.7,30.05,ENE,73,0.0,0.0,25,0.00,,CLR,0.00,VWS V14.01,2013-01-25 02:34:00,
2013-01-24 21:39:00,22.8,-7.7,30.05,NE,34,0.0,0.0,25,0.00,,CLR,0.00,VWS V14.01,2013-01-25 02:39:00,
2013-01-24 21:44:00,22.5,-8.0,30.05,North,353,0.0,0.0,25,0.00,,CLR,0.00,VWS V14.01,2013-01-25 02:44:00,
2013-01-24 21:49:00,22.3,-8.2,30.05,North,353,0.0,0.0,25,0.00,,CLR,0.00,VWS V14.01,2013-01-25 02:49:00,
2013-01-24 21:55:00,21.9,-8.5,30.05,North,353,0.0,0.0,25,0.00,,CLR,0.00,VWS V14.01,2013-01-25 02:55:00,
2013-01-24 22:00:00,21.7,-8.6,30.05,North,353,0.0,0.0,25,0.00,,CLR,0.00,VWS V14.01,2013-01-25 03:00:00,
2013-01-24 22:05:00,21.4,-9.0,30.05,North,353,0.0,0.0,25,0.00,,CLR,0.00,VWS V14.01,2013-01-25 03:05:00,
2013-01-24 22:10:00,21.6,-8.8,30.05,North,353,0.0,0.0,25,0.00,,CLR,0.00,VWS V14.01,2013-01-25 03:10:00,
2013-01-24 22:15:00,21.2,-9.1,30.05,North,353,0.0,0.0,25,0.00,,CLR,0.00,VWS V14.01,2013-01-25 03:15:00,
2013-01-24 22:20:00,21.4,-9.0,30.05,NNE,21,0.0,0.0,25,0.00,,CLR,0.00,VWS V14.01,2013-01-25 03:20:00,
2013-01-24 22:25:00,21.6,-8.8,30.05,NE,41,0.0,0.0,25,0.00,,CLR,0.00,VWS V14.01,2013-01-25 03:25:00,
2013-01-24 22:30:00,21.4,-9.0,30.05,NE,41,0.0,0.0,25,0.00,,CLR,0.00,VWS V14.01,2013-01-25 03:30:00,
2013-01-24 22:35:00,21.4,-9.0,30.05,NE,41,0.0,0.0,25,0.00,,CLR,0.00,VWS V14.01,2013-01-25 03:35:00,
2013-01-24 22:40:00,21.4,-9.0,30.05,ESE,106,0.0,0.0,25,0.00,,CLR,0.00,VWS V14.01,2013-01-25 03:40:00,
2013-01-24 22:45:00,21.2,-9.1,30.05,ESE,106,0.0,0.0,25,0.00,,CLR,0.00,VWS V14.01,2013-01-25 03:45:00,
2013-01-24 22:50:00,20.8,-9.4,30.05,ESE,106,0.0,0.0,25,0.00,,CLR,0.00,VWS V14.01,2013-01-25 03:50:00,
2013-01-24 22:56:00,20.3,-9.9,30.05,ESE,106,0.0,0.0,25,0.00,,CLR,0.00,VWS V14.01,2013-01-25 03:56:00,
2013-01-24 23:01:00,20.1,-10.1,30.05,ESE,106,0.0,0.0,25,0.00,,CLR,0.00,VWS V14.01,2013-01-25 04:01:00,
2013-01-24 23:06:00,20.1,-10.1,30.05,ESE,106,0.0,0.0,25,0.00,,CLR,0.00,VWS V14.01,2013-01-25 04:06:00,
2013-01-24 23:11:00,19.8,-10.4,30.05,ESE,106,0.0,0.0,25,0.00,,CLR,0.00,VWS V14.01,2013-01-25 04:11:00,
2013-01-24 23:16:00,19.6,-10.5,30.05,East,97,0.0,0.0,25,0.00,,CLR,0.00,VWS V14.01,2013-01-25 04:16:00,
2013-01-24 23:21:00,19.6,-10.5,30.05,East,97,0.0,0.0,25,0.00,,CLR,0.00,VWS V14.01,2013-01-25 04:21:00,
2013-01-24 23:26:00,19.4,-10.7,30.05,East,97,0.0,0.0,25,0.00,,CLR,0.00,VWS V14.01,2013-01-25 04:26:00,
2013-01-24 23:31:00,19.0,-11.0,30.05,East,97,0.0,0.0,25,0.00,,CLR,0.00,VWS V14.01,2013-01-25 04:31:00,
2013-01-24 23:36:00,18.9,-11.1,30.05,East,97,0.0,0.0,25,0.00,,CLR,0.00,VWS V14.01,2013-01-25 04:36:00,
2013-01-24 23:41:00,18.7,-11.3,30.05,East,97,0.0,0.0,25,0.00,,CLR,0.00,VWS V14.01,2013-01-25 04:41:00,
2013-01-24 23:47:00,18.5,-11.4,30.08,East,97,0.0,0.0,25,0.00,,CLR,0.00,VWS V14.01,2013-01-25 04:47:00,
2013-01-24 23:52:00,18.5,-11.4,30.08,East,97,0.0,0.0,25,0.00,,CLR,0.00,VWS V14.01,2013-01-25 04:52:00,
2013-01-24 23:57:00,18.7,-11.3,30.08,East,97,0.0,0.0,25,0.00,,CLR,0.00,VWS V14.01,2013-01-25 04:57:00,